Portada
METAR-TAF:

METAR-TAF

Aeropuertos :

La Palma, España

Aeropuerto de La Palma

latitud: 28-37N, longitud: 017-45W, altitud: 29 m

Observación

El informe se hizo hace 13 minutos, a las 14:00 UTC
Viento 6 kt del este-noreste, variando entre norte-noreste y este
Temperatura 21°C
Humedad 56%
Presión 1019 hPa
Visibilidad 10 km o más
Cielo nuboso a una altura de 3000 ft

METAR: GCLA 241400Z 07006KT 020V100 9999 BKN030 21/12 Q1019

Hora: 15:13 (14:13 UTC)

Pronóstico

El informe se hizo hace 6 horas y 13 minutos, a las 08:00 UTC
Pronóstico válido del 24 a las 09 UTC al 25 a las 09 UTC
Viento 10 kt del norte-noreste
Visibilidad 10 km o más
Nubes dispersas a una altura de 3000 ft
Evolucionando progresivamente
del 24 a las 19 UTC al 24 a las 21 UTC
Viento 4 kt del oeste-noroeste

TAF: GCLA 240800Z 2409/2509 02010KT 9999 SCT030 TX22/2414Z TN17/2505Z BECMG 2419/2421 30004KT

Observaciones y pronósticos meteorológicos de más de 4000 aeropuertos (mensajes METAR y TAF).

Los puntos amarillos y rojos representan las estaciones disponibles.

Ponga el ratón en el punto deseado para ver el nombre de la estación.

Haga clic para ver las observaciones y los pronósticos meteorológicos.

Para cambiar el mapa : haga clic en los botones verdes con una cruz de color negro para hacer un zoom, en el botón verde con un guión para alejar o en las flechas verdes para mapas adyacentes.


METAR-TAF: